sensor_id;sensor_type;location;lat;lon;timestamp;temperature;humidity
34640;DHT22;22600;48.186;11.526;2023-02-05T00:01:12;21.40;64.20
34640;DHT22;22600;48.186;11.526;2023-02-05T00:03:38;21.50;64.30
34640;DHT22;22600;48.186;11.526;2023-02-05T00:06:04;21.40;64.40
34640;DHT22;22600;48.186;11.526;2023-02-05T00:08:30;21.50;64.50
34640;DHT22;22600;48.186;11.526;2023-02-05T00:10:56;21.40;64.50
34640;DHT22;22600;48.186;11.526;2023-02-05T00:13:21;21.40;64.50
34640;DHT22;22600;48.186;11.526;2023-02-05T00:15:47;21.40;64.50
34640;DHT22;22600;48.186;11.526;2023-02-05T00:18:13;21.40;64.60
34640;DHT22;22600;48.186;11.526;2023-02-05T00:20:38;21.40;64.70
34640;DHT22;22600;48.186;11.526;2023-02-05T00:23:04;21.40;64.70
34640;DHT22;22600;48.186;11.526;2023-02-05T00:25:30;21.50;64.80
34640;DHT22;22600;48.186;11.526;2023-02-05T00:27:55;21.40;64.70
34640;DHT22;22600;48.186;11.526;2023-02-05T00:30:21;21.40;64.80
34640;DHT22;22600;48.186;11.526;2023-02-05T00:32:46;21.40;64.80
34640;DHT22;22600;48.186;11.526;2023-02-05T00:35:12;21.40;64.90
34640;DHT22;22600;48.186;11.526;2023-02-05T00:37:38;21.40;64.90
34640;DHT22;22600;48.186;11.526;2023-02-05T00:40:04;21.40;64.90
34640;DHT22;22600;48.186;11.526;2023-02-05T00:42:29;21.40;65.00
34640;DHT22;22600;48.186;11.526;2023-02-05T00:44:55;21.40;65.00
34640;DHT22;22600;48.186;11.526;2023-02-05T00:47:21;21.40;65.00
34640;DHT22;22600;48.186;11.526;2023-02-05T00:52:12;21.40;65.10
34640;DHT22;22600;48.186;11.526;2023-02-05T00:54:38;21.40;65.10
34640;DHT22;22600;48.186;11.526;2023-02-05T00:57:03;21.40;65.10
34640;DHT22;22600;48.186;11.526;2023-02-05T00:59:29;21.40;65.10
34640;DHT22;22600;48.186;11.526;2023-02-05T01:01:54;21.50;65.20
34640;DHT22;22600;48.186;11.526;2023-02-05T01:06:46;21.40;65.20
34640;DHT22;22600;48.186;11.526;2023-02-05T01:11:37;21.40;65.40
34640;DHT22;22600;48.186;11.526;2023-02-05T01:14:03;21.40;65.40
34640;DHT22;22600;48.186;11.526;2023-02-05T01:16:29;21.40;65.40
34640;DHT22;22600;48.186;11.526;2023-02-05T01:18:54;21.50;65.50
34640;DHT22;22600;48.186;11.526;2023-02-05T01:21:22;21.40;65.60
34640;DHT22;22600;48.186;11.526;2023-02-05T01:23:50;21.40;65.70
34640;DHT22;22600;48.186;11.526;2023-02-05T01:26:16;21.40;65.60
34640;DHT22;22600;48.186;11.526;2023-02-05T01:28:42;21.50;65.80
34640;DHT22;22600;48.186;11.526;2023-02-05T01:33:34;21.40;65.70
34640;DHT22;22600;48.186;11.526;2023-02-05T01:35:59;21.40;65.70
34640;DHT22;22600;48.186;11.526;2023-02-05T01:38:25;21.40;65.80
34640;DHT22;22600;48.186;11.526;2023-02-05T01:40:51;21.40;65.80
34640;DHT22;22600;48.186;11.526;2023-02-05T01:43:17;21.40;65.80
34640;DHT22;22600;48.186;11.526;2023-02-05T01:45:54;21.40;65.70
34640;DHT22;22600;48.186;11.526;2023-02-05T01:48:28;21.40;65.70
34640;DHT22;22600;48.186;11.526;2023-02-05T01:50:58;21.40;65.80
34640;DHT22;22600;48.186;11.526;2023-02-05T01:53:28;21.40;65.70
34640;DHT22;22600;48.186;11.526;2023-02-05T01:56:08;21.40;65.70
34640;DHT22;22600;48.186;11.526;2023-02-05T01:58:38;21.40;65.80
34640;DHT22;22600;48.186;11.526;2023-02-05T02:01:05;21.40;66.20
34640;DHT22;22600;48.186;11.526;2023-02-05T02:03:31;21.40;66.20
34640;DHT22;22600;48.186;11.526;2023-02-05T02:05:57;21.40;66.40
34640;DHT22;22600;48.186;11.526;2023-02-05T02:08:23;21.40;66.40
34640;DHT22;22600;48.186;11.526;2023-02-05T02:10:50;21.40;66.50
34640;DHT22;22600;48.186;11.526;2023-02-05T02:13:18;20.40;65.90
34640;DHT22;22600;48.186;11.526;2023-02-05T02:15:45;21.40;66.50
34640;DHT22;22600;48.186;11.526;2023-02-05T02:18:11;21.40;66.60
34640;DHT22;22600;48.186;11.526;2023-02-05T02:21:52;21.40;66.70
34640;DHT22;22600;48.186;11.526;2023-02-05T02:24:08;21.40;66.60
34640;DHT22;22600;48.186;11.526;2023-02-05T02:29:38;21.40;66.60
34640;DHT22;22600;48.186;11.526;2023-02-05T02:32:28;21.40;66.50
34640;DHT22;22600;48.186;11.526;2023-02-05T02:35:04;21.40;66.60
34640;DHT22;22600;48.186;11.526;2023-02-05T02:37:36;21.40;66.40
34640;DHT22;22600;48.186;11.526;2023-02-05T02:40:13;21.40;66.60
34640;DHT22;22600;48.186;11.526;2023-02-05T02:43:02;21.40;66.40
34640;DHT22;22600;48.186;11.526;2023-02-05T02:45:32;21.40;66.50
34640;DHT22;22600;48.186;11.526;2023-02-05T02:47:59;21.40;66.20
34640;DHT22;22600;48.186;11.526;2023-02-05T02:50:28;21.40;66.30
34640;DHT22;22600;48.186;11.526;2023-02-05T02:53:19;21.40;66.20
34640;DHT22;22600;48.186;11.526;2023-02-05T02:55:46;21.40;66.40
34640;DHT22;22600;48.186;11.526;2023-02-05T02:58:38;21.40;66.40
34640;DHT22;22600;48.186;11.526;2023-02-05T03:01:03;21.40;66.30
34640;DHT22;22600;48.186;11.526;2023-02-05T03:03:32;21.40;66.20
34640;DHT22;22600;48.186;11.526;2023-02-05T03:06:03;21.40;66.30
34640;DHT22;22600;48.186;11.526;2023-02-05T03:08:44;21.50;66.30
34640;DHT22;22600;48.186;11.526;2023-02-05T03:11:14;21.40;66.20
34640;DHT22;22600;48.186;11.526;2023-02-05T03:13:41;21.40;66.20
34640;DHT22;22600;48.186;11.526;2023-02-05T03:16:08;21.40;66.30
34640;DHT22;22600;48.186;11.526;2023-02-05T03:18:34;21.40;66.40
34640;DHT22;22600;48.186;11.526;2023-02-05T03:21:04;21.40;66.30
34640;DHT22;22600;48.186;11.526;2023-02-05T03:23:32;21.40;66.30
34640;DHT22;22600;48.186;11.526;2023-02-05T03:28:24;21.40;66.30
34640;DHT22;22600;48.186;11.526;2023-02-05T03:31:12;21.40;66.30
34640;DHT22;22600;48.186;11.526;2023-02-05T03:34:19;21.50;66.40
34640;DHT22;22600;48.186;11.526;2023-02-05T03:37:20;21.40;66.30
34640;DHT22;22600;48.186;11.526;2023-02-05T03:42:35;21.40;66.30
34640;DHT22;22600;48.186;11.526;2023-02-05T03:45:20;21.50;66.40
34640;DHT22;22600;48.186;11.526;2023-02-05T03:51:01;21.40;66.30
34640;DHT22;22600;48.186;11.526;2023-02-05T03:56:30;21.40;66.30
34640;DHT22;22600;48.186;11.526;2023-02-05T03:58:58;21.40;66.40
34640;DHT22;22600;48.186;11.526;2023-02-05T04:01:24;21.40;66.40
34640;DHT22;22600;48.186;11.526;2023-02-05T04:03:50;21.40;66.40
34640;DHT22;22600;48.186;11.526;2023-02-05T04:06:16;21.40;66.30
34640;DHT22;22600;48.186;11.526;2023-02-05T04:08:41;21.40;66.30
34640;DHT22;22600;48.186;11.526;2023-02-05T04:11:11;21.40;66.30
34640;DHT22;22600;48.186;11.526;2023-02-05T04:13:37;21.40;66.30
34640;DHT22;22600;48.186;11.526;2023-02-05T04:16:03;21.40;66.40
34640;DHT22;22600;48.186;11.526;2023-02-05T04:18:28;21.40;66.40
34640;DHT22;22600;48.186;11.526;2023-02-05T04:20:54;21.40;66.50
34640;DHT22;22600;48.186;11.526;2023-02-05T04:23:20;21.40;66.40
34640;DHT22;22600;48.186;11.526;2023-02-05T04:25:45;21.40;66.60
34640;DHT22;22600;48.186;11.526;2023-02-05T04:28:11;21.40;66.80
34640;DHT22;22600;48.186;11.526;2023-02-05T04:30:38;21.40;66.70
34640;DHT22;22600;48.186;11.526;2023-02-05T04:33:03;21.30;66.70
34640;DHT22;22600;48.186;11.526;2023-02-05T04:37:55;21.40;66.80
34640;DHT22;22600;48.186;11.526;2023-02-05T04:40:20;21.40;66.70
34640;DHT22;22600;48.186;11.526;2023-02-05T04:42:46;21.40;66.70
34640;DHT22;22600;48.186;11.526;2023-02-05T04:45:12;21.40;66.70
34640;DHT22;22600;48.186;11.526;2023-02-05T04:47:38;21.40;66.70
34640;DHT22;22600;48.186;11.526;2023-02-05T04:50:03;21.40;66.80
34640;DHT22;22600;48.186;11.526;2023-02-05T04:52:29;21.40;66.70
34640;DHT22;22600;48.186;11.526;2023-02-05T04:57:21;21.40;66.80
34640;DHT22;22600;48.186;11.526;2023-02-05T04:59:48;21.40;66.90
34640;DHT22;22600;48.186;11.526;2023-02-05T05:02:14;21.40;67.00
34640;DHT22;22600;48.186;11.526;2023-02-05T05:04:39;21.40;67.00
34640;DHT22;22600;48.186;11.526;2023-02-05T05:07:05;21.40;67.10
34640;DHT22;22600;48.186;11.526;2023-02-05T05:09:30;21.40;67.20
34640;DHT22;22600;48.186;11.526;2023-02-05T05:11:56;21.40;67.20
34640;DHT22;22600;48.186;11.526;2023-02-05T05:14:22;21.40;67.10
34640;DHT22;22600;48.186;11.526;2023-02-05T05:16:48;21.40;67.00
34640;DHT22;22600;48.186;11.526;2023-02-05T05:24:06;21.40;67.10
34640;DHT22;22600;48.186;11.526;2023-02-05T05:26:32;21.40;67.00
34640;DHT22;22600;48.186;11.526;2023-02-05T05:28:57;21.40;67.10
34640;DHT22;22600;48.186;11.526;2023-02-05T05:31:23;21.40;67.10
34640;DHT22;22600;48.186;11.526;2023-02-05T05:33:49;21.40;67.10
34640;DHT22;22600;48.186;11.526;2023-02-05T05:36:15;21.40;67.10
34640;DHT22;22600;48.186;11.526;2023-02-05T05:38:42;21.40;67.10
34640;DHT22;22600;48.186;11.526;2023-02-05T05:41:16;21.40;67.10
34640;DHT22;22600;48.186;11.526;2023-02-05T05:44:02;21.40;67.10
34640;DHT22;22600;48.186;11.526;2023-02-05T05:46:27;21.40;67.30
34640;DHT22;22600;48.186;11.526;2023-02-05T05:48:55;21.40;67.40
34640;DHT22;22600;48.186;11.526;2023-02-05T05:51:22;21.40;67.40
34640;DHT22;22600;48.186;11.526;2023-02-05T05:53:48;21.40;67.40
34640;DHT22;22600;48.186;11.526;2023-02-05T05:56:15;21.40;67.30
34640;DHT22;22600;48.186;11.526;2023-02-05T05:58:41;21.40;67.20
34640;DHT22;22600;48.186;11.526;2023-02-05T06:01:07;21.40;67.20
34640;DHT22;22600;48.186;11.526;2023-02-05T06:03:33;21.50;67.30
34640;DHT22;22600;48.186;11.526;2023-02-05T06:06:03;21.40;67.20
34640;DHT22;22600;48.186;11.526;2023-02-05T06:08:29;21.40;67.20
34640;DHT22;22600;48.186;11.526;2023-02-05T06:10:55;21.40;67.50
34640;DHT22;22600;48.186;11.526;2023-02-05T06:13:21;21.50;67.60
34640;DHT22;22600;48.186;11.526;2023-02-05T06:15:47;21.30;67.50
34640;DHT22;22600;48.186;11.526;2023-02-05T06:18:14;21.40;67.60
34640;DHT22;22600;48.186;11.526;2023-02-05T06:20:39;21.40;67.50
34640;DHT22;22600;48.186;11.526;2023-02-05T06:23:05;21.40;67.60
34640;DHT22;22600;48.186;11.526;2023-02-05T06:25:30;21.40;67.80
34640;DHT22;22600;48.186;11.526;2023-02-05T06:27:56;21.40;67.80
34640;DHT22;22600;48.186;11.526;2023-02-05T06:30:21;21.40;67.80
34640;DHT22;22600;48.186;11.526;2023-02-05T06:32:47;21.40;67.70
34640;DHT22;22600;48.186;11.526;2023-02-05T06:35:12;21.40;67.60
34640;DHT22;22600;48.186;11.526;2023-02-05T06:37:38;21.40;67.80
34640;DHT22;22600;48.186;11.526;2023-02-05T06:40:04;21.40;67.70
34640;DHT22;22600;48.186;11.526;2023-02-05T06:42:30;21.40;67.80
34640;DHT22;22600;48.186;11.526;2023-02-05T06:47:21;21.40;67.70
34640;DHT22;22600;48.186;11.526;2023-02-05T06:49:47;21.50;67.80
34640;DHT22;22600;48.186;11.526;2023-02-05T06:52:12;21.30;67.70
34640;DHT22;22600;48.186;11.526;2023-02-05T06:54:38;21.40;67.70
34640;DHT22;22600;48.186;11.526;2023-02-05T06:57:04;21.50;67.90
34640;DHT22;22600;48.186;11.526;2023-02-05T07:01:55;21.40;67.90
34640;DHT22;22600;48.186;11.526;2023-02-05T07:04:21;21.50;68.10
34640;DHT22;22600;48.186;11.526;2023-02-05T07:06:46;21.40;68.00
34640;DHT22;22600;48.186;11.526;2023-02-05T07:09:12;21.40;67.90
34640;DHT22;22600;48.186;11.526;2023-02-05T07:11:37;21.40;67.80
34640;DHT22;22600;48.186;11.526;2023-02-05T07:14:03;21.40;67.80
34640;DHT22;22600;48.186;11.526;2023-02-05T07:16:29;21.40;67.90
34640;DHT22;22600;48.186;11.526;2023-02-05T07:18:56;21.50;68.10
34640;DHT22;22600;48.186;11.526;2023-02-05T07:21:21;21.50;67.80
34640;DHT22;22600;48.186;11.526;2023-02-05T07:23:47;21.50;67.80
34640;DHT22;22600;48.186;11.526;2023-02-05T07:26:14;21.40;67.70
34640;DHT22;22600;48.186;11.526;2023-02-05T07:28:40;21.50;67.90
34640;DHT22;22600;48.186;11.526;2023-02-05T07:31:11;21.40;67.70
34640;DHT22;22600;48.186;11.526;2023-02-05T07:33:37;21.40;67.90
34640;DHT22;22600;48.186;11.526;2023-02-05T07:36:03;21.50;68.00
34640;DHT22;22600;48.186;11.526;2023-02-05T07:38:30;21.40;67.90
34640;DHT22;22600;48.186;11.526;2023-02-05T07:40:55;21.50;67.70
34640;DHT22;22600;48.186;11.526;2023-02-05T07:43:21;21.50;67.90
34640;DHT22;22600;48.186;11.526;2023-02-05T07:45:46;21.50;67.90
34640;DHT22;22600;48.186;11.526;2023-02-05T07:50:42;21.50;67.90
34640;DHT22;22600;48.186;11.526;2023-02-05T07:53:09;21.50;67.90
34640;DHT22;22600;48.186;11.526;2023-02-05T07:55:34;21.50;68.20
34640;DHT22;22600;48.186;11.526;2023-02-05T07:58:00;21.50;68.30
34640;DHT22;22600;48.186;11.526;2023-02-05T08:00:26;21.50;68.20
34640;DHT22;22600;48.186;11.526;2023-02-05T08:02:51;21.50;68.20
34640;DHT22;22600;48.186;11.526;2023-02-05T08:07:43;21.50;68.20
34640;DHT22;22600;48.186;11.526;2023-02-05T08:10:09;21.50;68.40
34640;DHT22;22600;48.186;11.526;2023-02-05T08:12:37;21.50;68.70
34640;DHT22;22600;48.186;11.526;2023-02-05T08:15:03;21.50;68.50
34640;DHT22;22600;48.186;11.526;2023-02-05T08:17:28;21.60;68.10
34640;DHT22;22600;48.186;11.526;2023-02-05T08:19:54;21.60;68.50
34640;DHT22;22600;48.186;11.526;2023-02-05T08:27:11;21.60;68.60
34640;DHT22;22600;48.186;11.526;2023-02-05T08:29:37;21.60;68.70
34640;DHT22;22600;48.186;11.526;2023-02-05T08:32:02;21.60;68.70
34640;DHT22;22600;48.186;11.526;2023-02-05T08:34:28;21.70;68.90
34640;DHT22;22600;48.186;11.526;2023-02-05T08:36:53;21.70;68.90
34640;DHT22;22600;48.186;11.526;2023-02-05T08:39:21;21.70;68.90
34640;DHT22;22600;48.186;11.526;2023-02-05T08:41:47;21.80;68.90
34640;DHT22;22600;48.186;11.526;2023-02-05T08:44:12;21.80;68.80
34640;DHT22;22600;48.186;11.526;2023-02-05T08:46:38;21.80;68.70
34640;DHT22;22600;48.186;11.526;2023-02-05T08:49:04;21.80;68.80
34640;DHT22;22600;48.186;11.526;2023-02-05T08:51:30;21.80;68.80
34640;DHT22;22600;48.186;11.526;2023-02-05T08:53:57;21.80;68.70
34640;DHT22;22600;48.186;11.526;2023-02-05T08:56:24;21.90;68.50
34640;DHT22;22600;48.186;11.526;2023-02-05T08:58:49;21.80;67.50
34640;DHT22;22600;48.186;11.526;2023-02-05T09:01:15;21.90;67.10
34640;DHT22;22600;48.186;11.526;2023-02-05T09:03:42;21.90;65.70
34640;DHT22;22600;48.186;11.526;2023-02-05T09:06:10;21.90;65.20
34640;DHT22;22600;48.186;11.526;2023-02-05T09:08:36;21.80;64.70
34640;DHT22;22600;48.186;11.526;2023-02-05T09:11:02;21.90;65.80
34640;DHT22;22600;48.186;11.526;2023-02-05T09:13:27;21.90;66.60
34640;DHT22;22600;48.186;11.526;2023-02-05T09:15:53;21.90;67.00
34640;DHT22;22600;48.186;11.526;2023-02-05T09:18:19;21.90;67.30
34640;DHT22;22600;48.186;11.526;2023-02-05T09:20:46;21.90;67.50
34640;DHT22;22600;48.186;11.526;2023-02-05T09:23:14;21.90;67.70
34640;DHT22;22600;48.186;11.526;2023-02-05T09:25:41;22.00;68.00
34640;DHT22;22600;48.186;11.526;2023-02-05T09:28:09;22.00;68.10
34640;DHT22;22600;48.186;11.526;2023-02-05T09:30:36;22.00;68.30
34640;DHT22;22600;48.186;11.526;2023-02-05T09:33:02;22.00;68.10
34640;DHT22;22600;48.186;11.526;2023-02-05T09:37:53;22.00;67.90
34640;DHT22;22600;48.186;11.526;2023-02-05T09:40:24;22.10;68.10
34640;DHT22;22600;48.186;11.526;2023-02-05T09:45:58;22.00;68.20
34640;DHT22;22600;48.186;11.526;2023-02-05T09:49:33;22.10;68.40
34640;DHT22;22600;48.186;11.526;2023-02-05T09:51:35;22.10;68.40
34640;DHT22;22600;48.186;11.526;2023-02-05T09:54:23;22.00;68.40
34640;DHT22;22600;48.186;11.526;2023-02-05T09:56:52;22.10;68.60
34640;DHT22;22600;48.186;11.526;2023-02-05T09:59:21;22.10;68.60
34640;DHT22;22600;48.186;11.526;2023-02-05T10:01:59;22.20;68.70
34640;DHT22;22600;48.186;11.526;2023-02-05T10:04:26;22.20;68.80
34640;DHT22;22600;48.186;11.526;2023-02-05T10:15:16;22.20;69.40
34640;DHT22;22600;48.186;11.526;2023-02-05T10:20:51;22.20;68.90
34640;DHT22;22600;48.186;11.526;2023-02-05T10:26:17;22.10;69.00
34640;DHT22;22600;48.186;11.526;2023-02-05T10:36:53;22.20;69.20
34640;DHT22;22600;48.186;11.526;2023-02-05T10:39:21;22.20;69.10
34640;DHT22;22600;48.186;11.526;2023-02-05T10:46:44;22.20;69.20
34640;DHT22;22600;48.186;11.526;2023-02-05T10:49:31;22.20;69.20
34640;DHT22;22600;48.186;11.526;2023-02-05T10:52:02;22.10;68.60
34640;DHT22;22600;48.186;11.526;2023-02-05T10:54:29;22.20;68.60
34640;DHT22;22600;48.186;11.526;2023-02-05T10:56:56;22.20;68.80
34640;DHT22;22600;48.186;11.526;2023-02-05T10:59:28;22.20;68.80
34640;DHT22;22600;48.186;11.526;2023-02-05T11:01:55;22.20;68.60
34640;DHT22;22600;48.186;11.526;2023-02-05T11:04:41;22.10;68.80
34640;DHT22;22600;48.186;11.526;2023-02-05T11:07:20;22.20;68.90
34640;DHT22;22600;48.186;11.526;2023-02-05T11:09:46;22.20;69.00
34640;DHT22;22600;48.186;11.526;2023-02-05T11:12:31;22.20;69.10
34640;DHT22;22600;48.186;11.526;2023-02-05T11:14:59;22.20;69.10
34640;DHT22;22600;48.186;11.526;2023-02-05T11:17:35;22.10;69.00
34640;DHT22;22600;48.186;11.526;2023-02-05T11:22:35;22.20;69.20
34640;DHT22;22600;48.186;11.526;2023-02-05T11:25:14;22.10;69.30
34640;DHT22;22600;48.186;11.526;2023-02-05T11:27:50;21.20;68.70
34640;DHT22;22600;48.186;11.526;2023-02-05T11:30:35;22.20;69.40
34640;DHT22;22600;48.186;11.526;2023-02-05T11:33:30;22.10;69.40
34640;DHT22;22600;48.186;11.526;2023-02-05T11:35:59;22.10;69.50
34640;DHT22;22600;48.186;11.526;2023-02-05T11:41:27;22.10;69.50
34640;DHT22;22600;48.186;11.526;2023-02-05T11:43:54;22.10;69.60
34640;DHT22;22600;48.186;11.526;2023-02-05T11:46:22;22.10;69.50
34640;DHT22;22600;48.186;11.526;2023-02-05T11:48:55;22.10;69.50
34640;DHT22;22600;48.186;11.526;2023-02-05T11:51:35;22.10;69.50
34640;DHT22;22600;48.186;11.526;2023-02-05T11:54:15;22.10;69.50
34640;DHT22;22600;48.186;11.526;2023-02-05T11:56:42;22.10;69.60
34640;DHT22;22600;48.186;11.526;2023-02-05T11:59:37;22.10;69.60
34640;DHT22;22600;48.186;11.526;2023-02-05T12:05:02;22.10;69.60
34640;DHT22;22600;48.186;11.526;2023-02-05T12:07:32;22.10;69.60
34640;DHT22;22600;48.186;11.526;2023-02-05T12:09:59;22.10;69.60
34640;DHT22;22600;48.186;11.526;2023-02-05T12:15:11;22.10;69.70
34640;DHT22;22600;48.186;11.526;2023-02-05T12:17:41;22.00;69.60
34640;DHT22;22600;48.186;11.526;2023-02-05T12:37:35;22.10;69.80
34640;DHT22;22600;48.186;11.526;2023-02-05T12:49:25;22.00;69.50
34640;DHT22;22600;48.186;11.526;2023-02-05T12:57:12;22.10;69.60
34640;DHT22;22600;48.186;11.526;2023-02-05T12:59:53;22.00;69.50
34640;DHT22;22600;48.186;11.526;2023-02-05T13:02:36;22.00;69.50
34640;DHT22;22600;48.186;11.526;2023-02-05T13:05:19;22.10;69.60
34640;DHT22;22600;48.186;11.526;2023-02-05T13:08:33;22.00;69.60
34640;DHT22;22600;48.186;11.526;2023-02-05T13:13:32;22.00;69.50
34640;DHT22;22600;48.186;11.526;2023-02-05T13:16:03;22.00;69.50
34640;DHT22;22600;48.186;11.526;2023-02-05T13:18:33;22.10;69.60
34640;DHT22;22600;48.186;11.526;2023-02-05T13:21:04;22.10;69.60
34640;DHT22;22600;48.186;11.526;2023-02-05T13:23:49;22.00;69.50
34640;DHT22;22600;48.186;11.526;2023-02-05T13:26:41;22.00;69.50
34640;DHT22;22600;48.186;11.526;2023-02-05T13:29:30;22.00;69.50
34640;DHT22;22600;48.186;11.526;2023-02-05T13:32:02;22.00;69.60
34640;DHT22;22600;48.186;11.526;2023-02-05T13:34:29;23.80;70.70
34640;DHT22;22600;48.186;11.526;2023-02-05T13:48:00;22.00;69.60
34640;DHT22;22600;48.186;11.526;2023-02-05T13:56:34;21.90;69.50
34640;DHT22;22600;48.186;11.526;2023-02-05T13:59:33;22.00;69.60
34640;DHT22;22600;48.186;11.526;2023-02-05T14:01:59;25.50;71.80
34640;DHT22;22600;48.186;11.526;2023-02-05T14:04:37;22.00;69.70
34640;DHT22;22600;48.186;11.526;2023-02-05T14:07:07;22.00;69.60
34640;DHT22;22600;48.186;11.526;2023-02-05T14:09:48;22.00;69.60
34640;DHT22;22600;48.186;11.526;2023-02-05T14:12:43;22.00;69.60
34640;DHT22;22600;48.186;11.526;2023-02-05T14:22:54;22.00;69.60
34640;DHT22;22600;48.186;11.526;2023-02-05T14:32:58;22.10;69.70
34640;DHT22;22600;48.186;11.526;2023-02-05T14:35:34;22.00;69.60
34640;DHT22;22600;48.186;11.526;2023-02-05T14:41:27;22.00;69.80
34640;DHT22;22600;48.186;11.526;2023-02-05T14:44:04;22.00;69.80
34640;DHT22;22600;48.186;11.526;2023-02-05T14:46:37;22.00;69.80
34640;DHT22;22600;48.186;11.526;2023-02-05T14:49:23;22.00;69.80
34640;DHT22;22600;48.186;11.526;2023-02-05T14:51:56;22.00;69.80
34640;DHT22;22600;48.186;11.526;2023-02-05T14:54:26;22.00;69.80
34640;DHT22;22600;48.186;11.526;2023-02-05T15:05:24;22.00;69.80
34640;DHT22;22600;48.186;11.526;2023-02-05T15:07:58;22.00;69.80
34640;DHT22;22600;48.186;11.526;2023-02-05T15:10:30;22.00;69.80
34640;DHT22;22600;48.186;11.526;2023-02-05T15:15:34;22.00;69.70
34640;DHT22;22600;48.186;11.526;2023-02-05T15:18:15;22.00;69.70
34640;DHT22;22600;48.186;11.526;2023-02-05T15:20:46;22.00;69.80
34640;DHT22;22600;48.186;11.526;2023-02-05T15:23:24;22.00;69.80
34640;DHT22;22600;48.186;11.526;2023-02-05T15:26:03;19.90;68.50
34640;DHT22;22600;48.186;11.526;2023-02-05T15:33:39;22.00;69.90
34640;DHT22;22600;48.186;11.526;2023-02-05T15:36:17;22.00;69.70
34640;DHT22;22600;48.186;11.526;2023-02-05T15:38:51;21.90;69.70
34640;DHT22;22600;48.186;11.526;2023-02-05T15:41:19;22.00;69.80
34640;DHT22;22600;48.186;11.526;2023-02-05T15:44:02;22.00;69.80
34640;DHT22;22600;48.186;11.526;2023-02-05T15:46:30;22.00;69.80
34640;DHT22;22600;48.186;11.526;2023-02-05T15:48:57;22.00;69.80
34640;DHT22;22600;48.186;11.526;2023-02-05T15:51:30;21.90;69.70
34640;DHT22;22600;48.186;11.526;2023-02-05T15:53:59;22.00;69.80
34640;DHT22;22600;48.186;11.526;2023-02-05T15:56:30;22.00;69.90
34640;DHT22;22600;48.186;11.526;2023-02-05T15:59:12;22.10;69.90
34640;DHT22;22600;48.186;11.526;2023-02-05T16:01:48;22.00;69.70
34640;DHT22;22600;48.186;11.526;2023-02-05T16:06:51;22.00;69.80
34640;DHT22;22600;48.186;11.526;2023-02-05T16:09:18;22.00;69.90
34640;DHT22;22600;48.186;11.526;2023-02-05T16:11:45;22.00;69.80
34640;DHT22;22600;48.186;11.526;2023-02-05T16:14:18;22.00;69.90
34640;DHT22;22600;48.186;11.526;2023-02-05T16:17:01;22.00;69.70
34640;DHT22;22600;48.186;11.526;2023-02-05T16:19:39;22.00;69.80
34640;DHT22;22600;48.186;11.526;2023-02-05T16:24:41;22.00;69.70
34640;DHT22;22600;48.186;11.526;2023-02-05T16:27:41;22.00;69.80
34640;DHT22;22600;48.186;11.526;2023-02-05T16:30:19;22.00;69.70
34640;DHT22;22600;48.186;11.526;2023-02-05T16:32:50;22.00;69.70
34640;DHT22;22600;48.186;11.526;2023-02-05T16:35:35;23.80;70.90
34640;DHT22;22600;48.186;11.526;2023-02-05T16:38:02;22.00;69.70
34640;DHT22;22600;48.186;11.526;2023-02-05T16:40:37;22.00;68.60
34640;DHT22;22600;48.186;11.526;2023-02-05T16:43:36;22.00;68.40
34640;DHT22;22600;48.186;11.526;2023-02-05T16:48:37;22.00;68.00
34640;DHT22;22600;48.186;11.526;2023-02-05T16:51:04;21.90;68.30
34640;DHT22;22600;48.186;11.526;2023-02-05T16:53:32;21.90;68.20
34640;DHT22;22600;48.186;11.526;2023-02-05T16:58:41;22.00;68.10
34640;DHT22;22600;48.186;11.526;2023-02-05T17:01:08;22.00;68.70
34640;DHT22;22600;48.186;11.526;2023-02-05T17:03:37;22.00;68.40
34640;DHT22;22600;48.186;11.526;2023-02-05T17:06:11;21.90;67.70
34640;DHT22;22600;48.186;11.526;2023-02-05T17:08:37;21.90;67.60
34640;DHT22;22600;48.186;11.526;2023-02-05T17:11:05;21.90;67.00
34640;DHT22;22600;48.186;11.526;2023-02-05T17:13:42;21.90;66.50
34640;DHT22;22600;48.186;11.526;2023-02-05T17:16:28;21.90;66.00
34640;DHT22;22600;48.186;11.526;2023-02-05T17:18:58;21.90;65.40
34640;DHT22;22600;48.186;11.526;2023-02-05T17:21:31;21.90;65.20
34640;DHT22;22600;48.186;11.526;2023-02-05T17:23:58;21.90;65.00
34640;DHT22;22600;48.186;11.526;2023-02-05T17:26:31;21.90;65.00
34640;DHT22;22600;48.186;11.526;2023-02-05T17:29:00;21.90;65.20
34640;DHT22;22600;48.186;11.526;2023-02-05T17:31:26;25.80;67.70
34640;DHT22;22600;48.186;11.526;2023-02-05T17:33:55;21.90;65.10
34640;DHT22;22600;48.186;11.526;2023-02-05T17:36:21;21.80;65.10
34640;DHT22;22600;48.186;11.526;2023-02-05T17:38:47;21.80;65.20
34640;DHT22;22600;48.186;11.526;2023-02-05T17:41:39;21.80;65.20
34640;DHT22;22600;48.186;11.526;2023-02-05T17:46:50;21.80;65.20
34640;DHT22;22600;48.186;11.526;2023-02-05T17:49:18;19.40;63.80
34640;DHT22;22600;48.186;11.526;2023-02-05T17:51:44;21.80;65.20
34640;DHT22;22600;48.186;11.526;2023-02-05T17:54:18;21.80;65.20
34640;DHT22;22600;48.186;11.526;2023-02-05T17:56:44;21.80;65.10
34640;DHT22;22600;48.186;11.526;2023-02-05T17:59:13;21.80;65.20
34640;DHT22;22600;48.186;11.526;2023-02-05T18:01:39;21.80;65.10
34640;DHT22;22600;48.186;11.526;2023-02-05T18:04:05;21.80;65.10
34640;DHT22;22600;48.186;11.526;2023-02-05T18:06:30;21.80;65.00
34640;DHT22;22600;48.186;11.526;2023-02-05T18:08:56;21.70;65.10
34640;DHT22;22600;48.186;11.526;2023-02-05T18:11:21;21.70;65.00
34640;DHT22;22600;48.186;11.526;2023-02-05T18:13:47;21.80;64.90
34640;DHT22;22600;48.186;11.526;2023-02-05T18:16:12;21.70;64.80
34640;DHT22;22600;48.186;11.526;2023-02-05T18:18:38;21.70;64.80
34640;DHT22;22600;48.186;11.526;2023-02-05T18:21:04;21.70;64.80
34640;DHT22;22600;48.186;11.526;2023-02-05T18:23:30;21.70;64.80
34640;DHT22;22600;48.186;11.526;2023-02-05T18:25:57;21.70;64.60
34640;DHT22;22600;48.186;11.526;2023-02-05T18:28:23;21.70;64.60
34640;DHT22;22600;48.186;11.526;2023-02-05T18:30:59;21.70;64.70
34640;DHT22;22600;48.186;11.526;2023-02-05T18:33:26;21.70;64.70
34640;DHT22;22600;48.186;11.526;2023-02-05T18:38:18;21.70;64.60
34640;DHT22;22600;48.186;11.526;2023-02-05T18:40:45;21.70;64.60
34640;DHT22;22600;48.186;11.526;2023-02-05T18:43:11;21.70;64.70
34640;DHT22;22600;48.186;11.526;2023-02-05T18:45:38;21.70;64.60
34640;DHT22;22600;48.186;11.526;2023-02-05T18:48:04;21.70;64.60